sensor_id;sensor_type;location;lat;lon;timestamp;temperature;humidity
20811;DHT22;10566;52.928;10.522;2022-12-18T00:02:23;-8.10;99.90
20811;DHT22;10566;52.928;10.522;2022-12-18T00:04:49;-8.10;99.90
20811;DHT22;10566;52.928;10.522;2022-12-18T00:07:15;-7.90;99.90
20811;DHT22;10566;52.928;10.522;2022-12-18T00:09:44;-7.70;99.90
20811;DHT22;10566;52.928;10.522;2022-12-18T00:12:12;-7.70;99.90
20811;DHT22;10566;52.928;10.522;2022-12-18T00:14:38;-7.60;99.90
20811;DHT22;10566;52.928;10.522;2022-12-18T00:17:04;-7.60;99.90
20811;DHT22;10566;52.928;10.522;2022-12-18T00:19:30;-7.50;99.90
20811;DHT22;10566;52.928;10.522;2022-12-18T00:21:56;-7.60;99.90
20811;DHT22;10566;52.928;10.522;2022-12-18T00:24:23;-7.70;99.90
20811;DHT22;10566;52.928;10.522;2022-12-18T00:26:50;-7.90;99.90
20811;DHT22;10566;52.928;10.522;2022-12-18T00:29:16;-7.80;99.90
20811;DHT22;10566;52.928;10.522;2022-12-18T00:31:42;-7.60;99.90
20811;DHT22;10566;52.928;10.522;2022-12-18T00:34:11;-7.40;99.90
20811;DHT22;10566;52.928;10.522;2022-12-18T00:36:38;-7.30;99.90
20811;DHT22;10566;52.928;10.522;2022-12-18T00:39:05;-7.30;99.90
20811;DHT22;10566;52.928;10.522;2022-12-18T00:41:32;-7.30;99.90
20811;DHT22;10566;52.928;10.522;2022-12-18T00:44:18;-7.40;99.90
20811;DHT22;10566;52.928;10.522;2022-12-18T00:46:44;-7.50;99.90
20811;DHT22;10566;52.928;10.522;2022-12-18T00:49:10;-7.60;99.90
20811;DHT22;10566;52.928;10.522;2022-12-18T00:51:36;-7.60;99.90
20811;DHT22;10566;52.928;10.522;2022-12-18T00:54:02;-7.60;99.90
20811;DHT22;10566;52.928;10.522;2022-12-18T00:56:28;-7.60;99.90
20811;DHT22;10566;52.928;10.522;2022-12-18T00:58:55;-7.60;99.90
20811;DHT22;10566;52.928;10.522;2022-12-18T01:01:21;-7.60;99.90
20811;DHT22;10566;52.928;10.522;2022-12-18T01:03:47;-7.60;99.90
20811;DHT22;10566;52.928;10.522;2022-12-18T01:06:14;-7.70;99.90
20811;DHT22;10566;52.928;10.522;2022-12-18T01:08:44;-7.60;99.90
20811;DHT22;10566;52.928;10.522;2022-12-18T01:11:16;-7.70;99.90
20811;DHT22;10566;52.928;10.522;2022-12-18T01:13:42;-7.70;99.90
20811;DHT22;10566;52.928;10.522;2022-12-18T01:16:11;-7.70;99.90
20811;DHT22;10566;52.928;10.522;2022-12-18T01:18:37;-7.80;99.90
20811;DHT22;10566;52.928;10.522;2022-12-18T01:21:08;-7.80;99.90
20811;DHT22;10566;52.928;10.522;2022-12-18T01:23:34;-7.80;99.90
20811;DHT22;10566;52.928;10.522;2022-12-18T01:26:14;-7.90;99.90
20811;DHT22;10566;52.928;10.522;2022-12-18T01:28:41;-7.90;99.90
20811;DHT22;10566;52.928;10.522;2022-12-18T01:31:33;-7.90;99.90
20811;DHT22;10566;52.928;10.522;2022-12-18T01:34:03;-7.90;99.90
20811;DHT22;10566;52.928;10.522;2022-12-18T01:36:32;-7.90;99.90
20811;DHT22;10566;52.928;10.522;2022-12-18T01:39:04;-7.90;99.90
20811;DHT22;10566;52.928;10.522;2022-12-18T01:41:32;-8.00;99.90
20811;DHT22;10566;52.928;10.522;2022-12-18T01:49:56;-8.10;99.90
20811;DHT22;10566;52.928;10.522;2022-12-18T01:52:26;-8.30;99.90
20811;DHT22;10566;52.928;10.522;2022-12-18T01:54:53;-8.30;99.90
20811;DHT22;10566;52.928;10.522;2022-12-18T01:57:20;-8.20;99.90
20811;DHT22;10566;52.928;10.522;2022-12-18T01:59:50;-8.10;99.90
20811;DHT22;10566;52.928;10.522;2022-12-18T02:02:19;-8.00;99.90
20811;DHT22;10566;52.928;10.522;2022-12-18T02:04:45;-8.00;99.90
20811;DHT22;10566;52.928;10.522;2022-12-18T02:17:58;-8.20;99.90
20811;DHT22;10566;52.928;10.522;2022-12-18T02:20:41;-8.20;99.90
20811;DHT22;10566;52.928;10.522;2022-12-18T02:28:54;-8.20;99.90
20811;DHT22;10566;52.928;10.522;2022-12-18T02:31:25;-8.20;99.90
20811;DHT22;10566;52.928;10.522;2022-12-18T02:33:54;-8.20;99.90
20811;DHT22;10566;52.928;10.522;2022-12-18T02:36:23;-8.20;99.90
20811;DHT22;10566;52.928;10.522;2022-12-18T02:38:53;-8.20;99.90
20811;DHT22;10566;52.928;10.522;2022-12-18T02:41:21;-8.20;99.90
20811;DHT22;10566;52.928;10.522;2022-12-18T02:44:10;-8.20;99.90
20811;DHT22;10566;52.928;10.522;2022-12-18T02:46:39;-8.30;99.90
20811;DHT22;10566;52.928;10.522;2022-12-18T02:49:26;-8.30;99.90
20811;DHT22;10566;52.928;10.522;2022-12-18T02:52:01;-8.30;99.90
20811;DHT22;10566;52.928;10.522;2022-12-18T03:00:04;-8.30;99.90
20811;DHT22;10566;52.928;10.522;2022-12-18T03:02:46;-8.30;99.90
20811;DHT22;10566;52.928;10.522;2022-12-18T03:05:22;-8.30;99.90
20811;DHT22;10566;52.928;10.522;2022-12-18T03:08:02;-8.30;99.90
20811;DHT22;10566;52.928;10.522;2022-12-18T03:10:32;-8.30;99.90
20811;DHT22;10566;52.928;10.522;2022-12-18T03:13:10;-8.40;99.90
20811;DHT22;10566;52.928;10.522;2022-12-18T03:15:47;-8.40;99.90
20811;DHT22;10566;52.928;10.522;2022-12-18T03:18:21;-8.30;99.90
20811;DHT22;10566;52.928;10.522;2022-12-18T03:20:49;-8.30;99.90
20811;DHT22;10566;52.928;10.522;2022-12-18T03:23:21;-8.30;99.90
20811;DHT22;10566;52.928;10.522;2022-12-18T03:25:52;-8.20;99.90
20811;DHT22;10566;52.928;10.522;2022-12-18T03:28:22;-8.20;99.90
20811;DHT22;10566;52.928;10.522;2022-12-18T03:30:52;-8.30;99.90
20811;DHT22;10566;52.928;10.522;2022-12-18T03:33:37;-8.30;99.90
20811;DHT22;10566;52.928;10.522;2022-12-18T03:36:04;-8.30;99.90
20811;DHT22;10566;52.928;10.522;2022-12-18T03:38:34;-8.40;99.90
20811;DHT22;10566;52.928;10.522;2022-12-18T03:41:32;-8.40;99.90
20811;DHT22;10566;52.928;10.522;2022-12-18T03:46:58;-8.50;99.90
20811;DHT22;10566;52.928;10.522;2022-12-18T03:52:20;-8.40;99.90
20811;DHT22;10566;52.928;10.522;2022-12-18T03:54:48;-8.40;99.90
20811;DHT22;10566;52.928;10.522;2022-12-18T03:57:18;-8.40;99.90
20811;DHT22;10566;52.928;10.522;2022-12-18T03:59:49;-8.40;99.90
20811;DHT22;10566;52.928;10.522;2022-12-18T04:02:17;-8.50;99.90
20811;DHT22;10566;52.928;10.522;2022-12-18T04:04:45;-8.50;99.90
20811;DHT22;10566;52.928;10.522;2022-12-18T04:07:13;-8.50;99.90
20811;DHT22;10566;52.928;10.522;2022-12-18T04:09:41;-8.50;99.90
20811;DHT22;10566;52.928;10.522;2022-12-18T04:12:08;-8.50;99.90
20811;DHT22;10566;52.928;10.522;2022-12-18T04:14:34;-8.50;99.90
20811;DHT22;10566;52.928;10.522;2022-12-18T04:17:02;-8.60;99.90
20811;DHT22;10566;52.928;10.522;2022-12-18T04:19:29;-8.60;99.90
20811;DHT22;10566;52.928;10.522;2022-12-18T04:21:55;-8.60;99.90
20811;DHT22;10566;52.928;10.522;2022-12-18T04:24:21;-8.60;99.90
20811;DHT22;10566;52.928;10.522;2022-12-18T04:26:48;-8.60;99.90
20811;DHT22;10566;52.928;10.522;2022-12-18T04:29:14;-8.70;99.90
20811;DHT22;10566;52.928;10.522;2022-12-18T04:31:40;-8.70;99.90
20811;DHT22;10566;52.928;10.522;2022-12-18T04:34:06;-8.70;99.90
20811;DHT22;10566;52.928;10.522;2022-12-18T04:36:32;-8.70;99.90
20811;DHT22;10566;52.928;10.522;2022-12-18T04:38:58;-8.70;99.90
20811;DHT22;10566;52.928;10.522;2022-12-18T04:41:24;-8.70;99.90
20811;DHT22;10566;52.928;10.522;2022-12-18T04:43:50;-8.70;99.90
20811;DHT22;10566;52.928;10.522;2022-12-18T04:46:17;-8.70;99.90
20811;DHT22;10566;52.928;10.522;2022-12-18T04:48:46;-8.80;99.90
20811;DHT22;10566;52.928;10.522;2022-12-18T04:51:22;-8.90;99.90
20811;DHT22;10566;52.928;10.522;2022-12-18T04:53:49;-8.90;99.90
20811;DHT22;10566;52.928;10.522;2022-12-18T04:56:16;-9.00;99.90
20811;DHT22;10566;52.928;10.522;2022-12-18T04:58:43;-9.00;99.90
20811;DHT22;10566;52.928;10.522;2022-12-18T05:01:11;-8.90;99.90
20811;DHT22;10566;52.928;10.522;2022-12-18T05:03:38;-9.00;99.90
20811;DHT22;10566;52.928;10.522;2022-12-18T05:06:05;-8.90;99.90
20811;DHT22;10566;52.928;10.522;2022-12-18T05:08:32;-9.00;99.90
20811;DHT22;10566;52.928;10.522;2022-12-18T05:11:17;-9.00;99.90
20811;DHT22;10566;52.928;10.522;2022-12-18T05:13:44;-9.10;99.90
20811;DHT22;10566;52.928;10.522;2022-12-18T05:16:11;-9.20;99.90
20811;DHT22;10566;52.928;10.522;2022-12-18T05:18:38;-9.10;99.90
20811;DHT22;10566;52.928;10.522;2022-12-18T05:21:04;-9.10;99.90
20811;DHT22;10566;52.928;10.522;2022-12-18T05:23:31;-9.20;99.90
20811;DHT22;10566;52.928;10.522;2022-12-18T05:25:59;-9.20;99.90
20811;DHT22;10566;52.928;10.522;2022-12-18T05:28:28;-9.30;99.90
20811;DHT22;10566;52.928;10.522;2022-12-18T05:30:57;-9.30;99.90
20811;DHT22;10566;52.928;10.522;2022-12-18T05:33:25;-9.50;99.90
20811;DHT22;10566;52.928;10.522;2022-12-18T05:35:54;-9.50;99.90
20811;DHT22;10566;52.928;10.522;2022-12-18T05:38:23;-9.50;99.90
20811;DHT22;10566;52.928;10.522;2022-12-18T05:40:49;-9.50;99.90
20811;DHT22;10566;52.928;10.522;2022-12-18T05:43:16;-9.50;99.90
20811;DHT22;10566;52.928;10.522;2022-12-18T05:45:43;-9.50;99.90
20811;DHT22;10566;52.928;10.522;2022-12-18T05:48:12;-9.60;99.90
20811;DHT22;10566;52.928;10.522;2022-12-18T05:50:41;-9.60;99.90
20811;DHT22;10566;52.928;10.522;2022-12-18T05:53:08;-9.60;99.90
20811;DHT22;10566;52.928;10.522;2022-12-18T05:55:39;-9.70;99.90
20811;DHT22;10566;52.928;10.522;2022-12-18T05:58:06;-9.70;99.90
20811;DHT22;10566;52.928;10.522;2022-12-18T06:00:35;-9.80;99.90
20811;DHT22;10566;52.928;10.522;2022-12-18T06:03:02;-9.70;99.90
20811;DHT22;10566;52.928;10.522;2022-12-18T06:05:28;-9.70;99.90
20811;DHT22;10566;52.928;10.522;2022-12-18T06:07:56;-9.70;99.90
20811;DHT22;10566;52.928;10.522;2022-12-18T06:10:23;-9.60;99.90
20811;DHT22;10566;52.928;10.522;2022-12-18T06:12:53;-9.60;99.90
20811;DHT22;10566;52.928;10.522;2022-12-18T06:15:18;-9.70;99.90
20811;DHT22;10566;52.928;10.522;2022-12-18T06:17:44;-9.70;99.90
20811;DHT22;10566;52.928;10.522;2022-12-18T06:20:11;-9.70;99.90
20811;DHT22;10566;52.928;10.522;2022-12-18T06:22:37;-9.70;99.90
20811;DHT22;10566;52.928;10.522;2022-12-18T06:25:03;-9.80;99.90
20811;DHT22;10566;52.928;10.522;2022-12-18T06:27:30;-9.80;99.90
20811;DHT22;10566;52.928;10.522;2022-12-18T06:29:56;-9.90;99.90
20811;DHT22;10566;52.928;10.522;2022-12-18T06:32:26;-9.90;99.90
20811;DHT22;10566;52.928;10.522;2022-12-18T08:40:30;-8.90;99.90
20811;DHT22;10566;52.928;10.522;2022-12-18T08:43:00;-8.40;99.90
20811;DHT22;10566;52.928;10.522;2022-12-18T08:45:45;-8.10;99.90
20811;DHT22;10566;52.928;10.522;2022-12-18T08:50:39;-7.20;99.90
20811;DHT22;10566;52.928;10.522;2022-12-18T08:53:05;-6.80;99.90
20811;DHT22;10566;52.928;10.522;2022-12-18T08:55:32;-6.50;99.90
20811;DHT22;10566;52.928;10.522;2022-12-18T08:57:58;-6.10;99.90
20811;DHT22;10566;52.928;10.522;2022-12-18T09:00:25;-6.10;99.90
20811;DHT22;10566;52.928;10.522;2022-12-18T09:02:51;-6.00;99.90
20811;DHT22;10566;52.928;10.522;2022-12-18T09:05:18;-6.10;99.90
20811;DHT22;10566;52.928;10.522;2022-12-18T09:07:43;-6.20;99.90
20811;DHT22;10566;52.928;10.522;2022-12-18T09:10:09;-6.10;99.90
20811;DHT22;10566;52.928;10.522;2022-12-18T09:12:36;-6.20;99.90
20811;DHT22;10566;52.928;10.522;2022-12-18T09:15:03;-6.00;99.90
20811;DHT22;10566;52.928;10.522;2022-12-18T09:17:36;-5.40;99.90
20811;DHT22;10566;52.928;10.522;2022-12-18T09:20:02;-5.70;99.90
20811;DHT22;10566;52.928;10.522;2022-12-18T09:22:28;-5.60;99.90
20811;DHT22;10566;52.928;10.522;2022-12-18T09:24:54;-5.40;99.90
20811;DHT22;10566;52.928;10.522;2022-12-18T09:27:20;-5.60;99.90
20811;DHT22;10566;52.928;10.522;2022-12-18T09:29:45;-5.80;99.90
20811;DHT22;10566;52.928;10.522;2022-12-18T09:32:11;-5.80;99.90
20811;DHT22;10566;52.928;10.522;2022-12-18T09:34:37;-5.60;99.90
20811;DHT22;10566;52.928;10.522;2022-12-18T09:37:02;-5.40;99.90
20811;DHT22;10566;52.928;10.522;2022-12-18T09:39:28;-5.30;99.90
20811;DHT22;10566;52.928;10.522;2022-12-18T09:41:56;-5.40;99.90
